Other Surface Observations
Issued by NWS

Home | Current Version | Previous Version | Text Only | Print | Product List | Glossary On
Versions: 1 2 3 4 5 6 7 8 9 10 11 12 13 14 15 16 17 18 19 20 21 22 23 24 25 26 27 28 29 30 31 32 33 34 35 36 37 38 39 40 41 42 43 44 45 46 47 48 49 50
000
SXUS52 KWBC 270559
OSOGX
:SHEF ENCODED 6-MINUTE NOS MET DATA
:NATIONAL WATER LEVEL OBSERVATION NETWORK (NWLON)
:TA(AIR TEMP DEG F)  SLP(SEA LEVEL PRESSURE INCHES)
:UD(WIND DIRECTION WHOLE DEGREES) US(WIND SPEED MPH)
:TW(WATER TEMP DEG F) UG(WIND GUSTS MPH) WC(CONDUCTIVITY uMHOS/CM)
:XV(VISIBILITY SM)
:-9999 (MISSING VALUES)
:PROVIDED BY DOC/NOAA/NOS/CO-OPS, (301) 713-2540
:corms@noaa.gov
.E FMRF1 20221127 Z DH0542/TAIRP/DIN06/   75/   75
.E FMRF1 20221127 Z DH0542/PLIRP/DIN06/29.97/29.97
.E FMRF1 20221127 Z DH0542/USIRP/DIN06/    2/    3
.E FMRF1 20221127 Z DH0542/UDIRP/DIN06/  135/  147
.E FMRF1 20221127 Z DH0542/UGIRP/DIN06/    4/    4
.E FMRF1 20221127 Z DH0542/TWIRP/DIN06/   77/   77
.E FMRF1 20221127 Z DH0542/TAIRG/DIN06/   75/   75
.E FMRF1 20221127 Z DH0542/PLIRG/DIN06/29.97/29.97
.E FMRF1 20221127 Z DH0542/USIRG/DIN06/    2/    3
.E FMRF1 20221127 Z DH0542/UDIRG/DIN06/  135/  147
.E FMRF1 20221127 Z DH0542/UGIRG/DIN06/    4/    4
.E FMRF1 20221127 Z DH0542/TWIRG/DIN06/   77/   77
.E PMAF1 20221127 Z DH0542/TAIRP/DIN06/   72/   72
.E PMAF1 20221127 Z DH0542/PLIRP/DIN06/29.99/29.98
.E PMAF1 20221127 Z DH0542/TWIRP/DIN06/   70/   70
.E PMAF1 20221127 Z DH0542/TAIRG/DIN06/   72/   72
.E PMAF1 20221127 Z DH0542/PLIRG/DIN06/29.99/29.98
.E PMAF1 20221127 Z DH0542/TWIRG/DIN06/   70/   70
.E MTBF1 20221127 Z DH0542/TAIRG/DIN06/   71/   71
.E MTBF1 20221127 Z DH0542/USIRG/DIN06/    6/    5
.E MTBF1 20221127 Z DH0542/UDIRG/DIN06/  176/  182
.E MTBF1 20221127 Z DH0542/UGIRG/DIN06/    6/    6
.E MTBF1 20221127 Z DH0542/XVIRG/DIN06/4.79/4.65
.E SAPF1 20221127 Z DH0542/TAIRP/DIN06/   71/   71
.E SAPF1 20221127 Z DH0542/PLIRP/DIN06/29.99/29.99
.E SAPF1 20221127 Z DH0542/USIRP/DIN06/    4/    4
.E SAPF1 20221127 Z DH0542/UDIRP/DIN06/  189/  188
.E SAPF1 20221127 Z DH0542/UGIRP/DIN06/    4/    5
.E SAPF1 20221127 Z DH0542/TWIRP/DIN06/   71/   71
.E SAPF1 20221127 Z DH0536/TAIRG/DIN06/   71/   71
.E SAPF1 20221127 Z DH0536/PLIRG/DIN06/29.99/29.99
.E SAPF1 20221127 Z DH0536/USIRG/DIN06/    3/    4
.E SAPF1 20221127 Z DH0536/UDIRG/DIN06/  205/  189
.E SAPF1 20221127 Z DH0536/UGIRG/DIN06/    4/    4
.E SAPF1 20221127 Z DH0536/TWIRG/DIN06/   71/   71
.E GCTF1 20221127 Z DH0542/TAIRP/DIN06/   71/   71
.E GCTF1 20221127 Z DH0542/PLIRP/DIN06/29.96/29.96
.E GCTF1 20221127 Z DH0542/XVIRP/DIN06/6.20/6.20
.E OPTF1 20221127 Z DH0542/TAIRP/DIN06/   71/   71
.E OPTF1 20221127 Z DH0542/PLIRP/DIN06/29.98/29.98
.E OPTF1 20221127 Z DH0542/USIRP/DIN06/    3/    3
.E OPTF1 20221127 Z DH0542/UDIRP/DIN06/  164/  167
.E OPTF1 20221127 Z DH0542/UGIRP/DIN06/    4/    4
.E OPTF1 20221127 Z DH0542/TWIRP/DIN06/   76/   76
.E EBEF1 20221127 Z DH0542/TAIRP/DIN06/   73/   73
.E EBEF1 20221127 Z DH0542/PLIRP/DIN06/29.98/29.97
.E EBEF1 20221127 Z DH0542/TWIRP/DIN06/   71/   71
.E EBEF1 20221127 Z DH0536/TAIRG/DIN06/   73/   73
.E EBEF1 20221127 Z DH0536/PLIRG/DIN06/29.97/29.98
.E EBEF1 20221127 Z DH0536/TWIRG/DIN06/   71/   71
.A TPAF1 20221127 Z DH0500/TAIRP -9999/UGIRP     5/PLIRP -9999/UDIRP   179/USIRP     5/TWIRP -9999/WCIRP -9999
.A CWBF1 20221127 Z DH0542/TAIRG    73/UGIRG     7/PLIRG 29.99/UDIRG   154/USIRG     6/TWIRG    70/WCIRG -9999
.E CKYF1 20221127 Z DH0542/TAIRP/DIN06/   67/   67
.E CKYF1 20221127 Z DH0542/PLIRP/DIN06/29.96/29.96
.E CKYF1 20221127 Z DH0542/USIRP/DIN06/    5/    5
.E CKYF1 20221127 Z DH0542/UDIRP/DIN06/  132/  122
.E CKYF1 20221127 Z DH0542/UGIRP/DIN06/    6/    6
.E CKYF1 20221127 Z DH0542/TWIRP/DIN06/   68/   68
.A CKYF1 20221127 Z DH0542/TAIRG    67/UGIRG     6/PLIRG 29.96/UDIRG   132/USIRG     5/TWIRG    68/WCIRG -9999
.E APCF1 20221127 Z DH0542/TAIRG/DIN06/   69/   69
.E APCF1 20221127 Z DH0542/PLIRG/DIN06/29.94/29.94
.E APCF1 20221127 Z DH0542/USIRG/DIN06/    9/    8
.E APCF1 20221127 Z DH0542/UDIRG/DIN06/  166/  167
.E APCF1 20221127 Z DH0542/UGIRG/DIN06/   12/   11
.E APCF1 20221127 Z DH0542/TWIRG/DIN06/   64/   64
.E PACF1 20221127 Z DH0542/USIRG/DIN06/   18/   19
.E PACF1 20221127 Z DH0542/UDIRG/DIN06/  131/  136
.E PACF1 20221127 Z DH0542/UGIRG/DIN06/   25/   25
.E PACF1 20221127 Z DH0542/TWIRG/DIN06/   65/   65
.A PCBF1 20221127 Z DH0542/TAIRG    68/UGIRG    25/PLIRG 29.90/UDIRG   137/USIRG    18/TWIRG    66/WCIRG -9999
.E PCLF1 20221127 Z DH0542/TAIRP/DIN06/   69/   68
.E PCLF1 20221127 Z DH0542/PLIRP/DIN06/29.83/29.83
.E PCLF1 20221127 Z DH0542/USIRP/DIN06/   16/   15
.E PCLF1 20221127 Z DH0542/UDIRP/DIN06/  196/  199
.E PCLF1 20221127 Z DH0542/UGIRP/DIN06/   19/   19
.E PCLF1 20221127 Z DH0542/TWIRP/DIN06/   62/   62
.E PCLF1 20221127 Z DH0542/TAIRG/DIN06/   69/   68
.E PCLF1 20221127 Z DH0542/PLIRG/DIN06/29.83/29.83
.E PCLF1 20221127 Z DH0542/USIRG/DIN06/   16/   15
.E PCLF1 20221127 Z DH0542/UDIRG/DIN06/  196/  199
.E PCLF1 20221127 Z DH0542/UGIRG/DIN06/   19/   19
.E PCLF1 20221127 Z DH0542/TWIRG/DIN06/   62/   62
.E EFLA1 20221127 Z DH0542/TAIRP/DIN06/   67/   67
.E EFLA1 20221127 Z DH0542/XVIRP/DIN06/6.20/6.20
.E EFLA1 20221127 Z DH0542/TAIRG/DIN06/   67/   67
.E EFLA1 20221127 Z DH0542/XVIRG/DIN06/6.20/6.20
.E FMOA1 20221127 Z DH0542/TAIRP/DIN06/   69/   68
.E FMOA1 20221127 Z DH0542/PLIRP/DIN06/29.83/29.83
.E FMOA1 20221127 Z DH0536/TAIRG/DIN06/   69/   69
.E FMOA1 20221127 Z DH0536/PLIRG/DIN06/29.83/29.83
.A DILA1 20221127 Z DH0542/TAIRG    68/UGIRG    18/PLIRG 29.81/UDIRG   254/USIRG    12/TWIRG    62/WCIRG -9999
.E MBPA1 20221127 Z DH0542/TAIRP/DIN06/   69/   69
.E MBPA1 20221127 Z DH0542/XVIRP/DIN06/6.20/6.20
.E MBPA1 20221127 Z DH0542/TAIRG/DIN06/   69/   69
.E MBPA1 20221127 Z DH0542/XVIRG/DIN06/6.20/6.20
.E MCGA1 20221127 Z DH0542/TAIRP/DIN06/   70/   69
.E MCGA1 20221127 Z DH0542/PLIRP/DIN06/29.81/29.81
.E MCGA1 20221127 Z DH0542/USIRP/DIN06/    6/    9
.E MCGA1 20221127 Z DH0542/UDIRP/DIN06/  239/  237
.E MCGA1 20221127 Z DH0542/UGIRP/DIN06/   13/   16
.E MCGA1 20221127 Z DH0542/TWIRP/DIN06/   63/   63
.E MCGA1 20221127 Z DH0542/TAIRG/DIN06/   70/   69
.E MCGA1 20221127 Z DH0542/PLIRG/DIN06/29.81/29.81
.E MCGA1 20221127 Z DH0542/USIRG/DIN06/    6/    9
.E MCGA1 20221127 Z DH0542/UDIRG/DIN06/  239/  237
.E MCGA1 20221127 Z DH0542/UGIRG/DIN06/   13/   16
.E MCGA1 20221127 Z DH0542/TWIRG/DIN06/   63/   63
.E PTOA1 20221127 Z DH0542/TAIRP/DIN06/   70/   70
.E PTOA1 20221127 Z DH0542/XVIRP/DIN06/6.20/6.20
.A PTOA1 20221127 Z DH0542/TAIRG    70/UGIRG -9999/PLIRG -9999/UDIRG -9999/USIRG -9999/TWIRG -9999/WCIRG -9999/XVIRG 6.20
.E OBLA1 20221127 Z DH0542/TAIRP/DIN06/   70/   70
.E OBLA1 20221127 Z DH0542/PLIRP/DIN06/29.76/29.77
.E OBLA1 20221127 Z DH0542/WCIRP/DIN06/14650/14630
.E OBLA1 20221127 Z DH0542/TWIRP/DIN06/   63/   63
.A OBLA1 20221127 Z DH0542/TAIRG    70/UGIRG -9999/PLIRG 29.76/UDIRG -9999/USIRG -9999/TWIRG    63/WCIRG 14650
.E PTBM6 20221127 Z DH0536/TAIRG/DIN06/   65/   65
.E PTBM6 20221127 Z DH0536/PLIRG/DIN06/29.82/29.83
.E PTBM6 20221127 Z DH0536/USIRG/DIN06/   23/   22
.E PTBM6 20221127 Z DH0536/UDIRG/DIN06/  244/  244
.E PTBM6 20221127 Z DH0536/UGIRG/DIN06/   27/   26
.E PNLM6 20221127 Z DH0542/TWIRP/DIN06/   61/   61
.A PNLM6 20221127 Z DH0542/TAIRG -9999/UGIRG -9999/PLIRG -9999/UDIRG -9999/USIRG -9999/TWIRG    61/WCIRG -9999
.A WYCM6 20221127 Z DH0542/TAIRG    66/UGIRG    17/PLIRG 29.86/UDIRG   270/USIRG    11/TWIRG    59/WCIRG -9999
.E PILL1 20221127 Z DH0542/TAIRP/DIN06/   67/   67
.E PILL1 20221127 Z DH0542/PLIRP/DIN06/29.88/29.88
.E PILL1 20221127 Z DH0542/USIRP/DIN06/   11/   11
.E PILL1 20221127 Z DH0542/UDIRP/DIN06/  273/  270
.E PILL1 20221127 Z DH0542/UGIRP/DIN06/   14/   13
.E PILL1 20221127 Z DH0542/TWIRP/DIN06/   64/   64
.E PILL1 20221127 Z DH0542/TAIRG/DIN06/   67/   67
.E PILL1 20221127 Z DH0542/PLIRG/DIN06/29.88/29.88
.E PILL1 20221127 Z DH0542/USIRG/DIN06/   11/   11
.E PILL1 20221127 Z DH0542/UDIRG/DIN06/  273/  270
.E PILL1 20221127 Z DH0542/UGIRG/DIN06/   14/   13
.E PILL1 20221127 Z DH0542/TWIRG/DIN06/   64/   64
.E PSTL1 20221127 Z DH0536/TAIRG/DIN06/   72/   72
.E PSTL1 20221127 Z DH0536/PLIRG/DIN06/29.88/29.88
.E PSTL1 20221127 Z DH0536/USIRG/DIN06/   21/   22
.E PSTL1 20221127 Z DH0536/UDIRG/DIN06/  254/  250
.E PSTL1 20221127 Z DH0536/UGIRG/DIN06/   24/   27
.E PSTL1 20221127 Z DH0536/TWIRG/DIN06/   65/   65
.A SHBL1 20221127 Z DH0542/TAIRG    62/UGIRG    20/PLIRG 29.88/UDIRG   242/USIRG    17/TWIRG    57/WCIRG -9999
.E GISL1 20221127 Z DH0542/TAIRP/DIN06/   66/   65
.E GISL1 20221127 Z DH0542/PLIRP/DIN06/29.88/29.89
.E GISL1 20221127 Z DH0542/USIRP/DIN06/   21/   21
.E GISL1 20221127 Z DH0542/UDIRP/DIN06/  260/  266
.E GISL1 20221127 Z DH0542/UGIRP/DIN06/   27/   26
.E GISL1 20221127 Z DH0542/TWIRP/DIN06/   67/   67
.E GISL1 20221127 Z DH0542/TAIRG/DIN06/   66/   65
.E GISL1 20221127 Z DH0542/PLIRG/DIN06/29.88/29.89
.E GISL1 20221127 Z DH0542/USIRG/DIN06/   21/   21
.E GISL1 20221127 Z DH0542/UDIRG/DIN06/  260/  266
.E GISL1 20221127 Z DH0542/UGIRG/DIN06/   27/   26
.E GISL1 20221127 Z DH0542/TWIRG/DIN06/   67/   67
.E NWCL1 20221127 Z DH0542/TAIRG/DIN06/   61/   61
.E NWCL1 20221127 Z DH0542/PLIRG/DIN06/29.85/29.85
.E NWCL1 20221127 Z DH0542/USIRG/DIN06/    8/   10
.E NWCL1 20221127 Z DH0542/UDIRG/DIN06/  228/  233
.E NWCL1 20221127 Z DH0542/UGIRG/DIN06/   13/   15
.E NWCL1 20221127 Z DH0542/TWIRG/DIN06/   66/   66
.E CARL1 20221127 Z DH0542/TWIRP/DIN06/   58/   58
.E CARL1 20221127 Z DH0536/TWIRG/DIN06/   58/   58
.E BYGL1 20221127 Z DH0542/TAIRP/DIN06/   58/   58
.E BYGL1 20221127 Z DH0542/PLIRP/DIN06/29.89/29.90
.E BYGL1 20221127 Z DH0542/USIRP/DIN06/    4/    5
.E BYGL1 20221127 Z DH0542/UDIRP/DIN06/  253/  252
.E BYGL1 20221127 Z DH0542/UGIRP/DIN06/   10/   10
.E BYGL1 20221127 Z DH0542/TWIRP/DIN06/   61/   61
.E TESL1 20221127 Z DH0542/TAIRP/DIN06/   58/   57
.E TESL1 20221127 Z DH0542/PLIRP/DIN06/29.91/29.91
.E TESL1 20221127 Z DH0542/USIRP/DIN06/   10/    9
.E TESL1 20221127 Z DH0542/UDIRP/DIN06/  246/  249
.E TESL1 20221127 Z DH0542/UGIRP/DIN06/   14/   13
.E TESL1 20221127 Z DH0542/TWIRP/DIN06/   58/   58
.E TESL1 20221127 Z DH0542/TAIRG/DIN06/   58/   57
.E TESL1 20221127 Z DH0542/PLIRG/DIN06/29.91/29.91
.E TESL1 20221127 Z DH0542/USIRG/DIN06/   10/    9
.E TESL1 20221127 Z DH0542/UDIRG/DIN06/  246/  249
.E TESL1 20221127 Z DH0542/UGIRG/DIN06/   14/   13
.E TESL1 20221127 Z DH0542/TWIRG/DIN06/   58/   58
.E AMRL1 20221127 Z DH0542/TAIRG/DIN06/   62/   62
.E AMRL1 20221127 Z DH0542/PLIRG/DIN06/29.91/29.91
.E AMRL1 20221127 Z DH0542/USIRG/DIN06/    5/    5
.E AMRL1 20221127 Z DH0542/UDIRG/DIN06/  254/  252
.E AMRL1 20221127 Z DH0542/UGIRG/DIN06/   12/   13
.E AMRL1 20221127 Z DH0542/TWIRG/DIN06/   62/   62
.E EINL1 20221127 Z DH0542/TAIRP/DIN06/   61/   61
.E EINL1 20221127 Z DH0542/PLIRP/DIN06/29.90/29.91
.E EINL1 20221127 Z DH0542/USIRP/DIN06/   18/   18
.E EINL1 20221127 Z DH0542/UDIRP/DIN06/  265/  268
.E EINL1 20221127 Z DH0542/UGIRP/DIN06/   20/   22
.E EINL1 20221127 Z DH0542/WCIRP/DIN06/12620/12660
.E EINL1 20221127 Z DH0542/TWIRP/DIN06/   60/   60
.E EINL1 20221127 Z DH0542/TAIRG/DIN06/   61/   61
.E EINL1 20221127 Z DH0542/PLIRG/DIN06/29.90/29.91
.E EINL1 20221127 Z DH0542/USIRG/DIN06/   18/   18
.E EINL1 20221127 Z DH0542/UDIRG/DIN06/  265/  268
.E EINL1 20221127 Z DH0542/UGIRG/DIN06/   20/   22
.E EINL1 20221127 Z DH0542/WCIRG/DIN06/12620/12660
.E EINL1 20221127 Z DH0542/TWIRG/DIN06/   60/   60
.E LCLL1 20221127 Z DH0542/TAIRP/DIN06/   56/   56
.E LCLL1 20221127 Z DH0542/PLIRP/DIN06/29.89/29.89
.E LCLL1 20221127 Z DH0542/TWIRP/DIN06/   66/   66
.E LCLL1 20221127 Z DH0542/TAIRG/DIN06/   56/   56
.E LCLL1 20221127 Z DH0542/PLIRG/DIN06/29.89/29.89
.E LCLL1 20221127 Z DH0542/TWIRG/DIN06/   66/   66
.E BKTL1 20221127 Z DH0542/TWIRP/DIN06/   69/   69
.A BKTL1 20221127 Z DH0542/TAIRG -9999/UGIRG -9999/PLIRG -9999/UDIRG -9999/USIRG -9999/TWIRG    69/WCIRG -9999
.E CAPL1 20221127 Z DH0542/TAIRP/DIN06/   60/   60
.E CAPL1 20221127 Z DH0542/PLIRP/DIN06/29.90/29.90
.E CAPL1 20221127 Z DH0542/USIRP/DIN06/   16/   15
.E CAPL1 20221127 Z DH0542/UDIRP/DIN06/  255/  256
.E CAPL1 20221127 Z DH0542/UGIRP/DIN06/   22/   19
.E CAPL1 20221127 Z DH0542/TWIRP/DIN06/   59/   59
.A CAPL1 20221127 Z DH0542/TAIRG    60/UGIRG    22/PLIRG 29.90/UDIRG   255/USIRG    16/TWIRG    59/WCIRG -9999
.A PORT2 20221127 Z DH0542/TAIRG    56/UGIRG    13/PLIRG 29.89/UDIRG   213/USIRG    11/TWIRG    60/WCIRG -9999
.E MGPT2 20221127 Z DH0542/PLIRP/DIN06/29.86/29.86
.E MGPT2 20221127 Z DH0542/WCIRP/DIN06/17100/17050
.E MGPT2 20221127 Z DH0542/TWIRP/DIN06/   60/   60
.E MGPT2 20221127 Z DH0536/TAIRG/DIN06/   54/   54/-9999
.E MGPT2 20221127 Z DH0536/PLIRG/DIN06/-9999/29.86/29.86
.E MGPT2 20221127 Z DH0536/USIRG/DIN06/    6/    7/-9999
.E MGPT2 20221127 Z DH0536/UDIRG/DIN06/  191/  192/-9999
.E MGPT2 20221127 Z DH0536/UGIRG/DIN06/   10/   10/-9999
.E MGPT2 20221127 Z DH0536/WCIRG/DIN06/-9999/17100/17050
.E MGPT2 20221127 Z DH0536/TWIRG/DIN06/-9999/   60/   60
.E NCHT2 20221127 Z DH0542/TAIRP/DIN06/   53/   53
.E NCHT2 20221127 Z DH0542/PLIRP/DIN06/29.86/29.86
.E NCHT2 20221127 Z DH0542/USIRP/DIN06/    4/    3
.E NCHT2 20221127 Z DH0542/UDIRP/DIN06/  215/  209
.E NCHT2 20221127 Z DH0542/UGIRP/DIN06/    6/    8
.E NCHT2 20221127 Z DH0542/TWIRP/DIN06/   64/   64
.E NCHT2 20221127 Z DH0542/TAIRG/DIN06/   53/   53
.E NCHT2 20221127 Z DH0542/PLIRG/DIN06/29.86/29.86
.E NCHT2 20221127 Z DH0542/USIRG/DIN06/    4/    3
.E NCHT2 20221127 Z DH0542/UDIRG/DIN06/  215/  209
.E NCHT2 20221127 Z DH0542/UGIRG/DIN06/    6/    8
.E NCHT2 20221127 Z DH0542/TWIRG/DIN06/   64/   64
.E HIST2 20221127 Z DH0542/TAIRP/DIN06/   53/   53
.E HIST2 20221127 Z DH0542/PLIRP/DIN06/29.88/29.88
.E HIST2 20221127 Z DH0542/USIRP/DIN06/    4/    5
.E HIST2 20221127 Z DH0542/UDIRP/DIN06/  210/  213
.E HIST2 20221127 Z DH0542/UGIRP/DIN06/    6/    6
.E HIST2 20221127 Z DH0542/TWIRP/DIN06/   62/   62
.E HIST2 20221127 Z DH0536/TAIRG/DIN06/   54/   53
.E HIST2 20221127 Z DH0536/PLIRG/DIN06/29.88/29.88
.E HIST2 20221127 Z DH0536/USIRG/DIN06/    4/    4
.E HIST2 20221127 Z DH0536/UDIRG/DIN06/  218/  210
.E HIST2 20221127 Z DH0536/UGIRG/DIN06/    5/    6
.E HIST2 20221127 Z DH0536/TWIRG/DIN06/   62/   62
.E TXPT2 20221127 Z DH0536/TAIRG/DIN06/   58/   58
.E TXPT2 20221127 Z DH0536/PLIRG/DIN06/29.83/29.83
.E TXPT2 20221127 Z DH0536/USIRG/DIN06/   13/   13
.E TXPT2 20221127 Z DH0536/UDIRG/DIN06/  244/  244
.E TXPT2 20221127 Z DH0536/UGIRG/DIN06/   18/   18
.E TXPT2 20221127 Z DH0536/TWIRG/DIN06/   60/   60
.E RLOT2 20221127 Z DH0542/TAIRP/DIN06/   55/   55
.E RLOT2 20221127 Z DH0542/PLIRP/DIN06/29.87/29.87
.E RLOT2 20221127 Z DH0542/USIRP/DIN06/    5/    3
.E RLOT2 20221127 Z DH0542/UDIRP/DIN06/  246/  247
.E RLOT2 20221127 Z DH0542/UGIRP/DIN06/    9/    8
.E RLOT2 20221127 Z DH0542/TWIRP/DIN06/   61/   60
.E RLOT2 20221127 Z DH0542/TAIRG/DIN06/   55/   55
.E RLOT2 20221127 Z DH0542/PLIRG/DIN06/29.87/29.87
.E RLOT2 20221127 Z DH0542/USIRG/DIN06/    5/    3
.E RLOT2 20221127 Z DH0542/UDIRG/DIN06/  246/  247
.E RLOT2 20221127 Z DH0542/UGIRG/DIN06/    9/    8
.E RLOT2 20221127 Z DH0542/TWIRG/DIN06/   61/   60
.E EPTT2 20221127 Z DH0542/TAIRP/DIN06/   55/   56
.E EPTT2 20221127 Z DH0542/PLIRP/DIN06/29.86/29.87
.E EPTT2 20221127 Z DH0542/USIRP/DIN06/    6/    8
.E EPTT2 20221127 Z DH0542/UDIRP/DIN06/  227/  227
.E EPTT2 20221127 Z DH0542/UGIRP/DIN06/    9/   10
.E EPTT2 20221127 Z DH0542/TWIRP/DIN06/   59/   59
.A EPTT2 20221127 Z DH0542/TAIRG    55/UGIRG     9/PLIRG 29.86/UDIRG   227/USIRG     6/TWIRG    59/WCIRG -9999
.E GNJT2 20221127 Z DH0536/TAIRG/DIN06/   59/   59
.E GNJT2 20221127 Z DH0536/PLIRG/DIN06/29.85/29.85
.E GNJT2 20221127 Z DH0536/USIRG/DIN06/   12/   13
.E GNJT2 20221127 Z DH0536/UDIRG/DIN06/  248/  249
.E GNJT2 20221127 Z DH0536/UGIRG/DIN06/   14/   15
.E GNJT2 20221127 Z DH0536/TWIRG/DIN06/   60/   60
.E GTOT2 20221127 Z DH0542/TAIRP/DIN06/   58/   58
.E GTOT2 20221127 Z DH0542/PLIRP/DIN06/29.88/29.88
.E GTOT2 20221127 Z DH0542/USIRP/DIN06/    7/    7
.E GTOT2 20221127 Z DH0542/UDIRP/DIN06/  216/  214
.E GTOT2 20221127 Z DH0542/UGIRP/DIN06/   11/   10
.E GTOT2 20221127 Z DH0542/TWIRP/DIN06/   60/   60
.E GTOT2 20221127 Z DH0542/TAIRG/DIN06/   58/   58
.E GTOT2 20221127 Z DH0542/PLIRG/DIN06/29.88/29.88
.E GTOT2 20221127 Z DH0542/USIRG/DIN06/    7/    7
.E GTOT2 20221127 Z DH0542/UDIRG/DIN06/  216/  214
.E GTOT2 20221127 Z DH0542/UGIRG/DIN06/   11/   10
.E GTOT2 20221127 Z DH0542/TWIRG/DIN06/   60/   60
.E GRRT2 20221127 Z DH0542/TAIRP/DIN06/   59/   59
.E GRRT2 20221127 Z DH0542/PLIRP/DIN06/29.87/29.87
.E GRRT2 20221127 Z DH0542/USIRP/DIN06/   10/   10
.E GRRT2 20221127 Z DH0542/UDIRP/DIN06/  211/  208
.E GRRT2 20221127 Z DH0542/UGIRP/DIN06/   12/   12
.E GRRT2 20221127 Z DH0542/TWIRP/DIN06/   61/   61
.A GRRT2 20221127 Z DH0542/TAIRG    59/UGIRG    12/PLIRG 29.87/UDIRG   211/USIRG    10/TWIRG    61/WCIRG -9999
.E LUIT2 20221127 Z DH0542/TAIRP/DIN06/   58/   59
.E LUIT2 20221127 Z DH0542/PLIRP/DIN06/29.88/29.88
.E LUIT2 20221127 Z DH0542/USIRP/DIN06/    6/    6
.E LUIT2 20221127 Z DH0542/UDIRP/DIN06/  206/  209
.E LUIT2 20221127 Z DH0542/UGIRP/DIN06/    9/    9
.E LUIT2 20221127 Z DH0542/TWIRP/DIN06/   60/   60
.E LUIT2 20221127 Z DH0542/TAIRG/DIN06/   58/   59
.E LUIT2 20221127 Z DH0542/PLIRG/DIN06/29.88/29.88
.E LUIT2 20221127 Z DH0542/USIRG/DIN06/    6/    6
.E LUIT2 20221127 Z DH0542/UDIRG/DIN06/  206/  209
.E LUIT2 20221127 Z DH0542/UGIRG/DIN06/    9/    9
.E LUIT2 20221127 Z DH0542/TWIRG/DIN06/   60/   60
.E FPST2 20221127 Z DH0542/TAIRP/DIN06/   58/   58
.E FPST2 20221127 Z DH0542/PLIRP/DIN06/29.86/29.86
.E FPST2 20221127 Z DH0542/USIRP/DIN06/    6/    6
.E FPST2 20221127 Z DH0542/UDIRP/DIN06/  224/  219
.E FPST2 20221127 Z DH0542/UGIRP/DIN06/    7/    7
.E FPST2 20221127 Z DH0542/TWIRP/DIN06/   60/   60
.E FPST2 20221127 Z DH0542/TAIRG/DIN06/   58/   58
.E FPST2 20221127 Z DH0542/PLIRG/DIN06/29.86/29.86
.E FPST2 20221127 Z DH0542/USIRG/DIN06/    6/    6
.E FPST2 20221127 Z DH0542/UDIRG/DIN06/  224/  219
.E FPST2 20221127 Z DH0542/UGIRG/DIN06/    7/    7
.E FPST2 20221127 Z DH0542/TWIRG/DIN06/   60/   60
.E SGNT2 20221127 Z DH0542/TAIRP/DIN06/   60/   59
.E SGNT2 20221127 Z DH0542/PLIRP/DIN06/29.88/29.88
.E SGNT2 20221127 Z DH0542/USIRP/DIN06/    4/    5
.E SGNT2 20221127 Z DH0542/UDIRP/DIN06/  225/  217
.E SGNT2 20221127 Z DH0542/UGIRP/DIN06/    5/    6
.E SGNT2 20221127 Z DH0542/TWIRP/DIN06/   62/   62
.E SGNT2 20221127 Z DH0542/TAIRG/DIN06/   60/   59
.E SGNT2 20221127 Z DH0542/PLIRG/DIN06/29.88/29.88
.E SGNT2 20221127 Z DH0542/USIRG/DIN06/    4/    5
.E SGNT2 20221127 Z DH0542/UDIRG/DIN06/  225/  217
.E SGNT2 20221127 Z DH0542/UGIRG/DIN06/    5/    6
.E SGNT2 20221127 Z DH0542/TWIRG/DIN06/   62/   62
.A SDRT2 20221127 Z DH0542/TAIRG    59/UGIRG    11/PLIRG 29.90/UDIRG   153/USIRG     9/TWIRG    60/WCIRG -9999
.A EMAT2 20221127 Z DH0542/TAIRG    58/UGIRG    11/PLIRG 29.88/UDIRG   202/USIRG     9/TWIRG    61/WCIRG -9999
.E VCAT2 20221127 Z DH0542/TAIRP/DIN06/   56/   55
.E VCAT2 20221127 Z DH0542/PLIRP/DIN06/29.89/29.89
.E VCAT2 20221127 Z DH0542/USIRP/DIN06/    7/    7
.E VCAT2 20221127 Z DH0542/UDIRP/DIN06/  217/  220
.E VCAT2 20221127 Z DH0542/UGIRP/DIN06/   11/    9
.E VCAT2 20221127 Z DH0542/TWIRP/DIN06/   59/   59
.E PCNT2 20221127 Z DH0542/TAIRP/DIN06/   60/   60
.E PCNT2 20221127 Z DH0542/PLIRP/DIN06/29.89/29.89
.E PCNT2 20221127 Z DH0542/USIRP/DIN06/   11/   11
.E PCNT2 20221127 Z DH0542/UDIRP/DIN06/  163/  164
.E PCNT2 20221127 Z DH0542/UGIRP/DIN06/   13/   15
.E PCNT2 20221127 Z DH0542/TWIRP/DIN06/   66/   66
.A PCNT2 20221127 Z DH0542/TAIRG    60/UGIRG    13/PLIRG 29.89/UDIRG   163/USIRG    11/TWIRG    66/WCIRG -9999
.E MBET2 20221127 Z DH0542/TAIRG/DIN06/   62/   62
.E MBET2 20221127 Z DH0542/PLIRG/DIN06/29.86/29.86
.E MBET2 20221127 Z DH0542/USIRG/DIN06/   15/   14
.E MBET2 20221127 Z DH0542/UDIRG/DIN06/  234/  235
.E MBET2 20221127 Z DH0542/UGIRG/DIN06/   17/   16
.E MBET2 20221127 Z DH0542/TWIRG/DIN06/   61/   61
.A AWRT2 20221127 Z DH0542/TAIRG    60/UGIRG    10/PLIRG 29.88/UDIRG   177/USIRG     7/TWIRG    59/WCIRG -9999
.E RCPT2 20221127 Z DH0542/TAIRP/DIN06/   60/   60
.E RCPT2 20221127 Z DH0542/PLIRP/DIN06/29.85/29.85
.E RCPT2 20221127 Z DH0542/USIRP/DIN06/    9/   10
.E RCPT2 20221127 Z DH0542/UDIRP/DIN06/  195/  189
.E RCPT2 20221127 Z DH0542/UGIRP/DIN06/   12/   11
.E RCPT2 20221127 Z DH0542/TWIRP/DIN06/   60/   60
.E LQAT2 20221127 Z DH0536/TAIRG/DIN06/-9999/   58/   58
.E LQAT2 20221127 Z DH0536/USIRG/DIN06/-9999/   13/   14
.E LQAT2 20221127 Z DH0536/UDIRG/DIN06/-9999/  196/  196
.E LQAT2 20221127 Z DH0536/UGIRG/DIN06/-9999/   16/   16
.E LQAT2 20221127 Z DH0536/TWIRG/DIN06/   58/   58/-9999
.E VTBT2 20221127 Z DH0542/TAIRG/DIN06/   55/   55
.E VTBT2 20221127 Z DH0542/USIRG/DIN06/    8/    9
.E VTBT2 20221127 Z DH0542/UDIRG/DIN06/  171/  171
.E VTBT2 20221127 Z DH0542/UGIRG/DIN06/   11/   11
.E VTBT2 20221127 Z DH0542/WCIRG/DIN06/36980/36960
.E VTBT2 20221127 Z DH0542/TWIRG/DIN06/   62/   62
.E UTVT2 20221127 Z DH0542/TAIRG/DIN06/   62/   62
.E UTVT2 20221127 Z DH0542/PLIRG/DIN06/29.86/29.86
.E UTVT2 20221127 Z DH0542/XVIRG/DIN06/6.20/6.20
.E RTAT2 20221127 Z DH0542/TAIRP/DIN06/   61/   61
.E RTAT2 20221127 Z DH0542/PLIRP/DIN06/29.89/29.89
.E RTAT2 20221127 Z DH0542/USIRP/DIN06/    7/    6
.E RTAT2 20221127 Z DH0542/UDIRP/DIN06/  171/  178
.E RTAT2 20221127 Z DH0542/UGIRP/DIN06/   11/   11
.E RTAT2 20221127 Z DH0542/TWIRP/DIN06/   61/   61
.E RTAT2 20221127 Z DH0542/TAIRG/DIN06/   61/   61
.E RTAT2 20221127 Z DH0542/PLIRG/DIN06/29.89/29.89
.E RTAT2 20221127 Z DH0542/USIRG/DIN06/    7/    6
.E RTAT2 20221127 Z DH0542/UDIRG/DIN06/  171/  178
.E RTAT2 20221127 Z DH0542/UGIRG/DIN06/   11/   11
.E RTAT2 20221127 Z DH0542/TWIRG/DIN06/   61/   61
.E ANPT2 20221127 Z DH0542/TAIRP/DIN06/   62/   62
.E ANPT2 20221127 Z DH0542/PLIRP/DIN06/29.88/29.88
.E ANPT2 20221127 Z DH0542/USIRP/DIN06/   15/   16
.E ANPT2 20221127 Z DH0542/UDIRP/DIN06/  155/  152
.E ANPT2 20221127 Z DH0542/UGIRP/DIN06/   18/   18
.E ANPT2 20221127 Z DH0542/TAIRG/DIN06/   62/   62
.E ANPT2 20221127 Z DH0542/PLIRG/DIN06/29.88/29.88
.E ANPT2 20221127 Z DH0542/USIRG/DIN06/   15/   16
.E ANPT2 20221127 Z DH0542/UDIRG/DIN06/  155/  152
.E ANPT2 20221127 Z DH0542/UGIRG/DIN06/   18/   18
.E MHBT2 20221127 Z DH0542/TAIRG/DIN06/   60/   60
.E MHBT2 20221127 Z DH0542/USIRG/DIN06/    9/   11
.E MHBT2 20221127 Z DH0542/UDIRG/DIN06/  200/  209
.E MHBT2 20221127 Z DH0542/UGIRG/DIN06/   14/   14
.E TLVT2 20221127 Z DH0542/TAIRG/DIN06/   56/   56
.E TLVT2 20221127 Z DH0542/PLIRG/DIN06/29.90/29.90
.E TLVT2 20221127 Z DH0542/XVIRG/DIN06/6.20/6.20
.A TAQT2 20221127 Z DH0548/TAIRG    59/UGIRG -9999/PLIRG 29.90/UDIRG -9999/USIRG -9999/TWIRG -9999/WCIRG -9999
.E TXVT2 20221127 Z DH0542/TAIRG/DIN06/   59/   59
.E TXVT2 20221127 Z DH0542/PLIRG/DIN06/29.91/29.91
.E TXVT2 20221127 Z DH0542/XVIRG/DIN06/6.20/6.20
.E PACT2 20221127 Z DH0542/TAIRP/DIN06/   60/   60
.E PACT2 20221127 Z DH0542/PLIRP/DIN06/29.91/29.91
.E PACT2 20221127 Z DH0542/USIRP/DIN06/   10/   11
.E PACT2 20221127 Z DH0542/UDIRP/DIN06/  165/  164
.E PACT2 20221127 Z DH0542/UGIRP/DIN06/   12/   13
.E PACT2 20221127 Z DH0542/TWIRP/DIN06/   61/   61
.E PACT2 20221127 Z DH0542/TAIRG/DIN06/   60/   60
.E PACT2 20221127 Z DH0542/PLIRG/DIN06/29.91/29.91
.E PACT2 20221127 Z DH0542/USIRG/DIN06/   10/   11
.E PACT2 20221127 Z DH0542/UDIRG/DIN06/  165/  164
.E PACT2 20221127 Z DH0542/UGIRG/DIN06/   12/   13
.E PACT2 20221127 Z DH0542/TWIRG/DIN06/   61/   61
.E IRDT2 20221127 Z DH0542/TAIRP/DIN06/   59/   59
.E IRDT2 20221127 Z DH0542/PLIRP/DIN06/29.91/29.91
.E IRDT2 20221127 Z DH0542/USIRP/DIN06/   15/   15
.E IRDT2 20221127 Z DH0542/UDIRP/DIN06/  189/  189
.E IRDT2 20221127 Z DH0542/UGIRP/DIN06/   17/   17
.E IRDT2 20221127 Z DH0542/TWIRP/DIN06/   60/   60
.A IRDT2 20221127 Z DH0542/TAIRG    59/UGIRG    17/PLIRG 29.91/UDIRG   189/USIRG    15/TWIRG    60/WCIRG -9999
.E BABT2 20221127 Z DH0542/TAIRP/DIN06/   59/   59
.E BABT2 20221127 Z DH0542/PLIRP/DIN06/29.93/29.93
.E BABT2 20221127 Z DH0542/USIRP/DIN06/   14/   16
.E BABT2 20221127 Z DH0542/UDIRP/DIN06/  165/  167
.E BABT2 20221127 Z DH0542/UGIRP/DIN06/   17/   18
.E BABT2 20221127 Z DH0542/TWIRP/DIN06/   61/   61
.A BABT2 20221127 Z DH0542/TAIRG    59/UGIRG    17/PLIRG 29.93/UDIRG   165/USIRG    14/TWIRG    61/WCIRG -9999
.E RSJT2 20221127 Z DH0542/TAIRP/DIN06/   57/   56
.E RSJT2 20221127 Z DH0542/PLIRP/DIN06/29.93/29.93
.E RSJT2 20221127 Z DH0542/USIRP/DIN06/   13/   15
.E RSJT2 20221127 Z DH0542/UDIRP/DIN06/  185/  185
.E RSJT2 20221127 Z DH0542/UGIRP/DIN06/   15/   17
.E RSJT2 20221127 Z DH0542/TWIRP/DIN06/   63/   63
.E PMNT2 20221127 Z DH0542/TAIRP/DIN06/   55/   55
.E PMNT2 20221127 Z DH0542/PLIRP/DIN06/29.91/29.91
.E PMNT2 20221127 Z DH0542/TWIRP/DIN06/   60/   60
.A PMNT2 20221127 Z DH0542/TAIRG    55/UGIRG -9999/PLIRG 29.91/UDIRG -9999/USIRG -9999/TWIRG    60/WCIRG -9999
.E RLIT2 20221127 Z DH0542/TAIRP/DIN06/   59/   59
.E RLIT2 20221127 Z DH0542/PLIRP/DIN06/29.92/29.92
.E RLIT2 20221127 Z DH0542/USIRP/DIN06/   15/   13
.E RLIT2 20221127 Z DH0542/UDIRP/DIN06/  198/  201
.E RLIT2 20221127 Z DH0542/UGIRP/DIN06/   19/   17
.E RLIT2 20221127 Z DH0542/TWIRP/DIN06/   62/   62
.E RLIT2 20221127 Z DH0536/TAIRG/DIN06/   59/   59
.E RLIT2 20221127 Z DH0536/PLIRG/DIN06/29.92/29.92
.E RLIT2 20221127 Z DH0536/USIRG/DIN06/   15/   15
.E RLIT2 20221127 Z DH0536/UDIRG/DIN06/  198/  198
.E RLIT2 20221127 Z DH0536/UGIRG/DIN06/   19/   19
.E RLIT2 20221127 Z DH0536/TWIRG/DIN06/   62/   62
.A PCGT2 20221127 Z DH0542/TAIRG    59/UGIRG    11/PLIRG 29.95/UDIRG   189/USIRG    10/TWIRG    62/WCIRG -9999
.E BZST2 20221127 Z DH0542/TAIRP/DIN06/   59/   59
.E BZST2 20221127 Z DH0542/PLIRP/DIN06/29.93/29.93
.E BZST2 20221127 Z DH0542/USIRP/DIN06/   12/   12
.E BZST2 20221127 Z DH0542/UDIRP/DIN06/  210/  211
.E BZST2 20221127 Z DH0542/UGIRP/DIN06/   13/   14
.E BZST2 20221127 Z DH0542/TWIRP/DIN06/   63/   63
.E BZST2 20221127 Z DH0536/TAIRG/DIN06/   59/   59
.E BZST2 20221127 Z DH0536/PLIRG/DIN06/29.94/29.93
.E BZST2 20221127 Z DH0536/USIRG/DIN06/   11/   12
.E BZST2 20221127 Z DH0536/UDIRG/DIN06/  201/  210
.E BZST2 20221127 Z DH0536/UGIRG/DIN06/   12/   13
.E BZST2 20221127 Z DH0536/TWIRG/DIN06/   63/   63
.E PTIT2 20221127 Z DH0542/TAIRP/DIN06/   56/   56
.E PTIT2 20221127 Z DH0542/PLIRP/DIN06/29.95/29.95
.E PTIT2 20221127 Z DH0542/USIRP/DIN06/    7/    8
.E PTIT2 20221127 Z DH0542/UDIRP/DIN06/  210/  200
.E PTIT2 20221127 Z DH0542/UGIRP/DIN06/   11/   11
.E PTIT2 20221127 Z DH0542/TWIRP/DIN06/   62/   62
.A PTIT2 20221127 Z DH0542/TAIRG    56/UGIRG    11/PLIRG 29.95/UDIRG   210/USIRG     7/TWIRG    62/WCIRG -9999
.E CHSV3 20221127 Z DH0542/PLIRP/DIN06/29.94/29.94
.E CHSV3 20221127 Z DH0542/USIRP/DIN06/    6/    4
.E CHSV3 20221127 Z DH0542/UDIRP/DIN06/   65/   57
.E CHSV3 20221127 Z DH0542/UGIRP/DIN06/   13/   14
.E CHSV3 20221127 Z DH0542/TWIRP/DIN06/   82/   82
.A CHSV3 20221127 Z DH0542/TAIRG -9999/UGIRG    13/PLIRG 29.94/UDIRG    65/USIRG     6/TWIRG    82/WCIRG -9999
.E LAMV3 20221127 Z DH0542/TAIRP/DIN06/   79/   79
.E LAMV3 20221127 Z DH0542/PLIRP/DIN06/29.98/29.99
.E LAMV3 20221127 Z DH0542/TWIRP/DIN06/   83/   83
.E LAMV3 20221127 Z DH0536/TAIRG/DIN06/   79/   79
.E LAMV3 20221127 Z DH0536/PLIRG/DIN06/29.99/29.98
.E LAMV3 20221127 Z DH0536/TWIRG/DIN06/   83/   83
.E LTBV3 20221127 Z DH0542/TAIRG/DIN06/   79/   79
.E LTBV3 20221127 Z DH0542/PLIRG/DIN06/29.94/29.94
.E LTBV3 20221127 Z DH0542/USIRG/DIN06/    8/    8
.E LTBV3 20221127 Z DH0542/UDIRG/DIN06/   82/   77
.E LTBV3 20221127 Z DH0542/UGIRG/DIN06/   11/   12
.E LTBV3 20221127 Z DH0542/TWIRG/DIN06/   82/   82
.E CHAV3 20221127 Z DH0542/TAIRP/DIN06/   77/   78
.E CHAV3 20221127 Z DH0542/PLIRP/DIN06/29.96/29.96
.E CHAV3 20221127 Z DH0542/USIRP/DIN06/    2/    4
.E CHAV3 20221127 Z DH0542/UDIRP/DIN06/   92/   93
.E CHAV3 20221127 Z DH0542/UGIRP/DIN06/    7/    6
.E CHAV3 20221127 Z DH0542/TWIRP/DIN06/   83/   83
.E CHAV3 20221127 Z DH0542/TAIRG/DIN06/   77/   78
.E CHAV3 20221127 Z DH0542/PLIRG/DIN06/29.96/29.96
.E CHAV3 20221127 Z DH0542/USIRG/DIN06/    2/    4
.E CHAV3 20221127 Z DH0542/UDIRG/DIN06/   92/   93
.E CHAV3 20221127 Z DH0542/UGIRG/DIN06/    7/    6
.E CHAV3 20221127 Z DH0542/TWIRG/DIN06/   83/   83
.E CLBP4 20221127 Z DH0542/TAIRP/DIN06/   79/   79
.E CLBP4 20221127 Z DH0542/PLIRP/DIN06/29.95/29.95
.E CLBP4 20221127 Z DH0542/TWIRP/DIN06/   83/   83
.A CLBP4 20221127 Z DH0542/TAIRG    79/UGIRG -9999/PLIRG 29.95/UDIRG -9999/USIRG -9999/TWIRG    83/WCIRG -9999
.E SJNP4 20221127 Z DH0542/TAIRP/DIN06/   79/   80
.E SJNP4 20221127 Z DH0542/PLIRP/DIN06/29.96/29.96
.E SJNP4 20221127 Z DH0542/USIRP/DIN06/    7/    7
.E SJNP4 20221127 Z DH0542/UDIRP/DIN06/   97/  101
.E SJNP4 20221127 Z DH0542/UGIRP/DIN06/   10/   10
.E SJNP4 20221127 Z DH0542/TWIRP/DIN06/   83/   83
.E SJNP4 20221127 Z DH0542/TAIRG/DIN06/   79/   80
.E SJNP4 20221127 Z DH0542/PLIRG/DIN06/29.96/29.96
.E SJNP4 20221127 Z DH0542/USIRG/DIN06/    7/    7
.E SJNP4 20221127 Z DH0542/UDIRG/DIN06/   97/  101
.E SJNP4 20221127 Z DH0542/UGIRG/DIN06/   10/   10
.E SJNP4 20221127 Z DH0542/TWIRG/DIN06/   83/   83
.E MGZP4 20221127 Z DH0542/TAIRP/DIN06/   74/   74
.E MGZP4 20221127 Z DH0542/PLIRP/DIN06/29.99/29.99
.E MGZP4 20221127 Z DH0542/USIRP/DIN06/    2/    3
.E MGZP4 20221127 Z DH0542/UDIRP/DIN06/   14/   15
.E MGZP4 20221127 Z DH0542/UGIRP/DIN06/    3/    5
.E MGZP4 20221127 Z DH0542/TWIRP/DIN06/   85/   85
.E MGZP4 20221127 Z DH0536/TAIRG/DIN06/   74/   74
.E MGZP4 20221127 Z DH0536/PLIRG/DIN06/29.99/29.99
.E MGZP4 20221127 Z DH0536/USIRG/DIN06/    1/    2
.E MGZP4 20221127 Z DH0536/UDIRG/DIN06/   23/   14
.E MGZP4 20221127 Z DH0536/UGIRG/DIN06/    3/    3
.E MGZP4 20221127 Z DH0536/TWIRG/DIN06/   85/   85
.A MISP4 20221127 Z DH0548/TAIRG    75/UGIRG -9999/PLIRG 29.97/UDIRG -9999/USIRG -9999/TWIRG    82/WCIRG -9999



USA.gov is the U.S. government's official web portal to all federal, state and local government web resources and services.